Terminal Aerodrome Forecast
Issued by NWS La Crosse, WI

Current Version | Previous Version | Text Only | Print | Product List | Glossary On
Versions: 1 2 3 4 5 6 7 8 9 10 11 12 13 14 15 16 17 18 19 20 21 22 23 24 25 26 27 28 29 30
000
FTUS43 KARX 012334
TAFLSE
TAF
KLSE 012334Z 0200/0224 29012KT P6SM SKC
      TEMPO 0201/0203 BKN040
     FM020500 29008KT P6SM SKC
     FM021400 19003KT P6SM SCT250
     FM022200 18008KT P6SM BKN120=

USA.gov is the U.S. government's official web portal to all federal, state and local government web resources and services.